Afrodite — CURM3 — position and weather

sailwx.info

Track history (hours):
 
Tides and Currents Weather Stations Pressure Air Temp Water Temp Dewpoint Dewpoint Depression Visibility Wind Speed Wind Dir Waves Ship Positions

Afrodite

Last reported at 2017-Aug-17 13:29 UTC. Time now 2017-Aug-17 13:32 UTC.
Position N 39°18' W 009°23'.

Length 26 m.

Type: Fishing. MMSI: 263500170.

Date/timePositionNaut miles runAvg speedWind from/ knotsBaromVisibWave heightAir tempDewpointWater temp
2017-Aug-17 13:29N 39°18' W 009°23'3 5.6
2017-Aug-17 12:52N 39°21' W 009°22'0 0.0
2017-Aug-16 19:12N 39°21' W 009°22'0 0.0
2017-Aug-16 19:00N 39°21' W 009°22'0 0.0
2017-Aug-16 18:30N 39°21' W 009°22'0 0.0
2017-Aug-16 18:00N 39°21' W 009°22'0 0.0
2017-Aug-16 17:30N 39°21' W 009°22'3 4.3
2017-Aug-16 16:50N 39°19' W 009°23'3 9.9
2017-Aug-16 16:30N 39°15' W 009°24'3 1.8
2017-Aug-16 15:01N 39°13' W 009°26'0 9.7
2017-Aug-16 15:00N 39°13' W 009°26'610.1
2017-Aug-16 14:23N 39°19' W 009°27'0 0.2
2017-Aug-16 13:59N 39°19' W 009°27'3 2.7
2017-Aug-16 13:00N 39°20' W 009°23'1 2.6
2017-Aug-16 12:26N 39°21' W 009°22'  
2017-Aug-11 19:35N 39°21' W 009°22'0 0.0
2017-Aug-11 19:30N 39°21' W 009°22'0 0.0
2017-Aug-11 19:00N 39°21' W 009°22'0 0.0
2017-Aug-11 18:30N 39°21' W 009°22'0 0.0
2017-Aug-11 18:00N 39°21' W 009°22'0 0.0
2017-Aug-11 17:30N 39°21' W 009°22'0 0.0
2017-Aug-11 17:00N 39°21' W 009°22'0 0.0
2017-Aug-11 16:30N 39°21' W 009°22'0 0.0
2017-Aug-11 16:00N 39°21' W 009°22'0 0.2
2017-Aug-11 15:30N 39°21' W 009°22'4 7.7
2017-Aug-11 14:59N 39°19' W 009°26'1 1.6
2017-Aug-11 14:31N 39°18' W 009°26'0 0.1
2017-Aug-11 13:31N 39°18' W 009°26'3 5.9
2017-Aug-11 13:00N 39°20' W 009°23'1 0.1
2017-Aug-11 00:16N 39°21' W 009°22'0 0.0
2017-Aug-11 00:00N 39°21' W 009°22'0 0.0
2017-Aug-10 23:30N 39°21' W 009°22'3 0.6
2017-Aug-10 19:29N 39°24' W 009°21'5 9.0
2017-Aug-10 18:54N 39°20' W 009°26'3 6.1
2017-Aug-10 18:28N 39°18' W 009°24'3 7.3
2017-Aug-10 18:00N 39°21' W 009°22'0 0.0
2017-Aug-10 17:30N 39°21' W 009°22'1 1.3
2017-Aug-10 16:59N 39°21' W 009°23'3 7.2
2017-Aug-10 16:30N 39°20' W 009°27'0 0.4
2017-Aug-10 16:00N 39°19' W 009°27'0 0.4
2017-Aug-10 15:30N 39°19' W 009°27'0 0.3
2017-Aug-10 15:00N 39°19' W 009°27'3 5.6
2017-Aug-10 14:29N 39°18' W 009°23'0 0.5
2017-Aug-10 14:00N 39°18' W 009°23'0 0.1
2017-Aug-10 13:30N 39°18' W 009°23'2 4.3
2017-Aug-10 13:00N 39°20' W 009°23'  
Track history (hours):
 
Tides and Currents Weather Stations Pressure Air Temp Water Temp Dewpoint Dewpoint Depression Visibility Wind Speed Wind Dir Waves Ship Positions

Afrodite

Last reported at 2017-Aug-17 13:29 UTC. Time now 2017-Aug-17 13:32 UTC.
Position N 39°18' W 009°23'.

Length 26 m.

Type: Fishing. MMSI: 263500170.

Date/timePositionNaut miles runAvg speedWind from/ knotsBaromVisibWave heightAir tempDewpointWater temp
2017-Aug-17 13:29N 39°18' W 009°23'3 5.6
2017-Aug-17 12:52N 39°21' W 009°22'0 0.0
2017-Aug-16 19:12N 39°21' W 009°22'0 0.0
2017-Aug-16 19:00N 39°21' W 009°22'0 0.0
2017-Aug-16 18:30N 39°21' W 009°22'0 0.0
2017-Aug-16 18:00N 39°21' W 009°22'0 0.0
2017-Aug-16 17:30N 39°21' W 009°22'3 4.3
2017-Aug-16 16:50N 39°19' W 009°23'3 9.9
2017-Aug-16 16:30N 39°15' W 009°24'3 1.8
2017-Aug-16 15:01N 39°13' W 009°26'0 9.7
2017-Aug-16 15:00N 39°13' W 009°26'610.1
2017-Aug-16 14:23N 39°19' W 009°27'0 0.2
2017-Aug-16 13:59N 39°19' W 009°27'3 2.7
2017-Aug-16 13:00N 39°20' W 009°23'1 2.6
2017-Aug-16 12:26N 39°21' W 009°22'  
2017-Aug-11 19:35N 39°21' W 009°22'0 0.0
2017-Aug-11 19:30N 39°21' W 009°22'0 0.0
2017-Aug-11 19:00N 39°21' W 009°22'0 0.0
2017-Aug-11 18:30N 39°21' W 009°22'0 0.0
2017-Aug-11 18:00N 39°21' W 009°22'0 0.0
2017-Aug-11 17:30N 39°21' W 009°22'0 0.0
2017-Aug-11 17:00N 39°21' W 009°22'0 0.0
2017-Aug-11 16:30N 39°21' W 009°22'0 0.0
2017-Aug-11 16:00N 39°21' W 009°22'0 0.2
2017-Aug-11 15:30N 39°21' W 009°22'4 7.7
2017-Aug-11 14:59N 39°19' W 009°26'1 1.6
2017-Aug-11 14:31N 39°18' W 009°26'0 0.1
2017-Aug-11 13:31N 39°18' W 009°26'3 5.9
2017-Aug-11 13:00N 39°20' W 009°23'1 0.1
2017-Aug-11 00:16N 39°21' W 009°22'0 0.0
2017-Aug-11 00:00N 39°21' W 009°22'0 0.0
2017-Aug-10 23:30N 39°21' W 009°22'3 0.6
2017-Aug-10 19:29N 39°24' W 009°21'5 9.0
2017-Aug-10 18:54N 39°20' W 009°26'3 6.1
2017-Aug-10 18:28N 39°18' W 009°24'3 7.3
2017-Aug-10 18:00N 39°21' W 009°22'0 0.0
2017-Aug-10 17:30N 39°21' W 009°22'1 1.3
2017-Aug-10 16:59N 39°21' W 009°23'3 7.2
2017-Aug-10 16:30N 39°20' W 009°27'0 0.4
2017-Aug-10 16:00N 39°19' W 009°27'0 0.4
2017-Aug-10 15:30N 39°19' W 009°27'0 0.3
2017-Aug-10 15:00N 39°19' W 009°27'3 5.6
2017-Aug-10 14:29N 39°18' W 009°23'0 0.5
2017-Aug-10 14:00N 39°18' W 009°23'0 0.1
2017-Aug-10 13:30N 39°18' W 009°23'2 4.3
2017-Aug-10 13:00N 39°20' W 009°23'  

Dump ship's entire track history